Time;durP1;ratioP1;P1;durP2;ratioP2;P2;SDS_P1;SDS_P2;PMS_P1;PMS_P2;Temp;Humidity;BMP_temperature;BMP_pressure;BME280_temperature;BME280_humidity;BME280_pressure;Samples;Min_cycle;Max_cycle;Signal;HPM_P1;HPM_P2
2023/10/14 00:00:46;;;;;;;24.07;9.43;;;20.50;91.80;;;;;;5074566;28;20460;-57
2023/10/14 00:03:27;;;;;;;15.90;8.30;;;20.50;91.50;;;;;;5074283;28;20432;-58
2023/10/14 00:05:54;;;;;;;14.27;8.80;;;20.50;91.60;;;;;;5074300;28;20436;-57
2023/10/14 00:08:21;;;;;;;14.87;9.53;;;20.50;91.70;;;;;;5073786;28;20502;-56
2023/10/14 00:10:48;;;;;;;12.73;10.80;;;20.40;93.80;;;;;;5073628;28;20850;-56
2023/10/14 00:13:16;;;;;;;15.80;11.13;;;20.30;94.40;;;;;;5074110;28;20472;-57
2023/10/14 00:15:45;;;;;;;13.73;11.07;;;20.10;95.00;;;;;;5074087;28;20876;-58
2023/10/14 00:18:13;;;;;;;11.97;9.23;;;20.00;95.60;;;;;;5074079;28;20539;-58
2023/10/14 00:20:41;;;;;;;14.20;11.20;;;19.90;95.60;;;;;;5073961;28;20461;-58
2023/10/14 00:23:07;;;;;;;16.17;10.30;;;19.90;95.90;;;;;;5073890;28;20532;-58
2023/10/14 00:25:35;;;;;;;12.03;10.10;;;19.80;96.50;;;;;;5073807;28;20452;-58
2023/10/14 00:28:06;;;;;;;10.33;8.40;;;19.70;97.10;;;;;;5073767;28;20509;-58
2023/10/14 00:30:33;;;;;;;12.23;10.00;;;19.60;97.50;;;;;;5073645;28;20491;-58
2023/10/14 00:32:59;;;;;;;15.17;10.43;;;19.50;97.80;;;;;;5073677;28;20457;-58
2023/10/14 00:35:27;;;;;;;14.77;10.10;;;19.50;98.20;;;;;;5073642;28;20444;-58
2023/10/14 00:37:55;;;;;;;17.33;9.70;;;19.50;98.40;;;;;;5073438;28;20957;-58
2023/10/14 00:40:23;;;;;;;16.17;10.67;;;19.50;98.60;;;;;;5073624;28;20460;-58
2023/10/14 00:42:51;;;;;;;13.80;10.33;;;19.50;98.80;;;;;;5073562;28;20437;-58
2023/10/14 00:45:20;;;;;;;17.40;10.30;;;19.50;99.00;;;;;;5073599;28;20449;-58
2023/10/14 00:47:48;;;;;;;12.70;10.50;;;19.50;99.10;;;;;;5073220;28;20957;-58
2023/10/14 00:50:33;;;;;;;14.43;11.07;;;19.40;99.10;;;;;;5073346;28;20480;-58
2023/10/14 00:53:05;;;;;;;14.80;10.73;;;19.50;99.10;;;;;;5073754;28;20482;-58
2023/10/14 00:55:45;;;;;;;12.37;10.53;;;19.50;99.20;;;;;;5073225;28;20436;-58
2023/10/14 00:58:20;;;;;;;13.30;10.70;;;19.50;99.10;;;;;;5073481;28;20476;-58
2023/10/14 01:00:56;;;;;;;12.60;9.30;;;19.50;99.20;;;;;;5073429;28;20456;-58
2023/10/14 01:03:23;;;;;;;25.40;10.63;;;19.50;99.10;;;;;;5073493;28;20558;-58
2023/10/14 01:05:50;;;;;;;24.07;10.00;;;19.50;98.80;;;;;;5073408;28;20467;-58
2023/10/14 01:08:22;;;;;;;14.33;9.47;;;19.50;98.50;;;;;;5072950;28;20964;-58
2023/10/14 01:10:50;;;;;;;11.40;8.60;;;19.40;99.00;;;;;;5073320;28;20484;-58
2023/10/14 01:13:22;;;;;;;14.37;9.20;;;19.40;98.60;;;;;;5073718;28;20448;-58
2023/10/14 01:15:51;;;;;;;16.17;8.27;;;19.40;98.60;;;;;;5073244;28;20425;-58
2023/10/14 01:18:18;;;;;;;15.20;9.77;;;19.30;98.60;;;;;;5073197;28;20451;-58
2023/10/14 01:20:46;;;;;;;13.20;7.67;;;19.20;98.90;;;;;;5073222;28;20460;-58
2023/10/14 01:23:15;;;;;;;13.10;8.30;;;19.20;99.30;;;;;;5072860;28;20448;-55
2023/10/14 01:25:47;;;;;;;14.10;8.10;;;19.20;99.90;;;;;;5073184;28;20444;-55
2023/10/14 01:28:15;;;;;;;11.37;7.50;;;19.00;99.90;;;;;;5073423;28;20425;-55
2023/10/14 01:31:23;;;;;;;16.90;9.80;;;18.90;99.90;;;;;;5072920;28;20523;-55
2023/10/14 01:33:50;;;;;;;12.60;6.63;;;18.80;99.90;;;;;;5073134;28;20451;-55
2023/10/14 01:36:17;;;;;;;13.27;7.40;;;18.70;99.90;;;;;;5072972;28;20468;-55
2023/10/14 01:38:57;;;;;;;16.60;6.67;;;18.60;99.90;;;;;;5072985;28;20450;-56
2023/10/14 01:41:24;;;;;;;8.07;5.30;;;18.50;99.90;;;;;;5072975;28;20461;-57
2023/10/14 01:43:51;;;;;;;8.60;5.30;;;18.40;99.90;;;;;;5072992;28;20473;-56
2023/10/14 01:46:20;;;;;;;8.50;4.53;;;18.30;99.90;;;;;;5072987;28;20468;-55
2023/10/14 01:48:52;;;;;;;2.70;2.20;;;18.30;99.90;;;;;;5074986;28;20539;-55
2023/10/14 01:51:19;;;;;;;3.43;2.20;;;18.20;99.90;;;;;;5072803;28;20542;-56
2023/10/14 01:53:47;;;;;;;4.47;1.80;;;18.20;99.90;;;;;;5072893;28;20444;-55
2023/10/14 01:56:13;;;;;;;2.60;1.87;;;18.20;99.90;;;;;;5072883;28;20448;-56
2023/10/14 01:58:41;;;;;;;0.93;0.80;;;18.20;99.90;;;;;;5073140;28;20435;-56
2023/10/14 02:01:15;;;;;;;2.57;0.80;;;18.20;99.90;;;;;;5072906;28;20472;-56
2023/10/14 02:03:43;;;;;;;2.23;0.60;;;18.10;99.90;;;;;;5073139;28;20429;-55
2023/10/14 02:06:18;;;;;;;1.73;0.83;;;17.90;99.90;;;;;;5073149;28;20449;-56
2023/10/14 02:08:47;;;;;;;1.53;0.50;;;17.90;99.90;;;;;;5076787;28;20539;-56
2023/10/14 02:11:16;;;;;;;1.53;0.67;;;17.90;99.90;;;;;;5076676;28;20484;-56
2023/10/14 02:13:44;;;;;;;1.33;0.60;;;17.80;99.90;;;;;;5076865;28;20440;-56
2023/10/14 02:16:10;;;;;;;1.20;0.30;;;17.70;99.90;;;;;;5076608;28;20451;-55
2023/10/14 02:18:38;;;;;;;1.63;0.47;;;17.70;99.90;;;;;;5076429;28;20448;-56
2023/10/14 02:21:06;;;;;;;0.80;0.57;;;17.70;99.90;;;;;;5076009;28;21008;-56
2023/10/14 02:23:43;;;;;;;2.93;0.40;;;17.60;99.90;;;;;;5076444;28;20535;-55
2023/10/14 02:26:15;;;;;;;0.53;0.50;;;17.60;99.90;;;;;;5076239;28;20431;-55
2023/10/14 02:28:45;;;;;;;1.80;0.50;;;17.60;99.90;;;;;;5076216;28;20433;-55
2023/10/14 02:31:17;;;;;;;1.47;0.57;;;17.60;99.90;;;;;;5076392;28;20854;-56
2023/10/14 02:33:46;;;;;;;0.77;0.40;;;17.50;99.90;;;;;;5076129;28;20433;-56
2023/10/14 02:36:15;;;;;;;0.90;0.40;;;17.50;99.90;;;;;;5076043;28;20453;-57
2023/10/14 02:38:43;;;;;;;0.30;0.20;;;17.30;99.90;;;;;;5075923;28;20449;-57
2023/10/14 02:41:14;;;;;;;0.70;0.33;;;17.30;99.90;;;;;;5075804;28;20542;-57
2023/10/14 02:43:42;;;;;;;0.90;0.43;;;17.30;99.90;;;;;;5075581;28;20891;-56
2023/10/14 02:46:10;;;;;;;0.60;0.30;;;17.20;99.90;;;;;;5075518;28;20804;-56
2023/10/14 02:48:52;;;;;;;0.80;0.37;;;17.20;99.90;;;;;;5075778;28;20539;-56
2023/10/14 02:51:29;;;;;;;0.60;0.40;;;17.20;99.90;;;;;;5075703;28;20493;-56
2023/10/14 02:53:58;;;;;;;1.60;0.53;;;17.20;99.90;;;;;;5075448;28;20443;-56
2023/10/14 02:56:33;;;;;;;1.00;0.40;;;17.10;99.90;;;;;;5076021;28;20445;-56
2023/10/14 02:59:00;;;;;;;1.13;0.40;;;17.10;99.90;;;;;;5075391;28;20573;-55
2023/10/14 03:01:31;;;;;;;1.73;0.40;;;17.10;99.90;;;;;;5075498;28;20468;-56
2023/10/14 03:04:09;;;;;;;1.30;0.47;;;17.10;99.90;;;;;;5075484;28;20425;-56
2023/10/14 03:06:46;;;;;;;1.00;0.57;;;17.10;99.90;;;;;;5075503;28;20435;-56
2023/10/14 03:09:17;;;;;;;1.27;0.70;;;17.00;99.90;;;;;;5075148;28;20465;-56
2023/10/14 03:11:47;;;;;;;1.60;0.70;;;16.80;99.90;;;;;;5075166;28;20484;-56
2023/10/14 03:14:14;;;;;;;1.00;0.67;;;16.70;99.90;;;;;;5075513;28;20922;-56
2023/10/14 03:16:41;;;;;;;1.87;0.87;;;16.60;99.90;;;;;;5075171;28;20443;-57
2023/10/14 03:19:08;;;;;;;7.40;0.90;;;16.50;99.90;;;;;;5075037;28;20441;-57
2023/10/14 03:21:35;;;;;;;2.60;0.60;;;16.30;99.90;;;;;;5075058;28;20496;-57
2023/10/14 03:24:03;;;;;;;4.20;1.60;;;16.30;99.90;;;;;;5074949;28;20441;-57
2023/10/14 03:26:32;;;;;;;8.70;1.73;;;16.10;99.90;;;;;;5074929;28;20560;-57
2023/10/14 03:29:04;;;;;;;2.10;1.00;;;16.00;99.90;;;;;;5074974;28;20469;-57
2023/10/14 03:31:35;;;;;;;3.50;1.30;;;16.00;99.90;;;;;;5074802;28;20496;-57
2023/10/14 03:34:08;;;;;;;1.70;0.83;;;15.90;99.90;;;;;;5074855;28;20436;-56
2023/10/14 03:36:35;;;;;;;4.07;1.23;;;15.90;99.90;;;;;;5074775;28;20470;-56
2023/10/14 03:39:18;;;;;;;7.30;1.57;;;15.90;99.90;;;;;;5074641;28;20444;-56
2023/10/14 03:41:44;;;;;;;5.30;1.80;;;15.80;99.90;;;;;;5074602;28;20461;-57
2023/10/14 03:44:14;;;;;;;5.60;2.03;;;15.70;99.90;;;;;;5074674;28;20452;-57
2023/10/14 03:46:43;;;;;;;5.67;1.60;;;15.60;99.90;;;;;;5074538;28;20201;-57
2023/10/14 03:49:20;;;;;;;10.23;1.93;;;15.50;99.90;;;;;;5074169;28;20934;-57
2023/10/14 03:51:49;;;;;;;9.63;2.00;;;15.50;99.90;;;;;;5074295;28;20491;-57
2023/10/14 03:54:23;;;;;;;7.97;1.60;;;15.40;99.90;;;;;;5074395;28;20441;-57
2023/10/14 03:56:50;;;;;;;6.77;1.43;;;15.40;99.90;;;;;;5074344;28;20435;-57
2023/10/14 03:59:21;;;;;;;6.80;1.77;;;15.40;99.90;;;;;;5074380;28;20447;-57
2023/10/14 04:01:54;;;;;;;5.97;1.60;;;15.40;99.90;;;;;;5074209;28;20453;-58
2023/10/14 04:04:21;;;;;;;7.37;1.70;;;15.40;99.90;;;;;;5074229;28;20513;-57
2023/10/14 04:07:12;;;;;;;9.70;2.10;;;15.40;99.80;;;;;;5073870;28;20872;-57
2023/10/14 04:09:40;;;;;;;9.23;2.73;;;15.50;99.90;;;;;;5073504;28;20456;-58
2023/10/14 04:12:08;;;;;;;6.83;2.63;;;15.50;99.90;;;;;;5074042;28;20567;-57
2023/10/14 04:14:37;;;;;;;6.50;1.93;;;15.50;99.90;;;;;;5073594;28;20950;-58
2023/10/14 04:17:18;;;;;;;6.77;2.00;;;15.50;99.90;;;;;;5074000;28;20456;-58
2023/10/14 04:19:46;;;;;;;8.00;2.30;;;15.60;99.90;;;;;;5073942;28;20475;-58
2023/10/14 04:22:31;;;;;;;8.43;2.03;;;15.60;99.90;;;;;;5073572;28;20938;-58
2023/10/14 04:25:16;;;;;;;11.77;2.47;;;15.60;99.90;;;;;;5073917;28;20425;-58
2023/10/14 04:27:55;;;;;;;9.57;2.17;;;15.60;99.90;;;;;;5073566;28;20909;-58
2023/10/14 04:30:32;;;;;;;6.50;2.10;;;15.60;99.20;;;;;;5073257;28;20465;-58
2023/10/14 04:33:16;;;;;;;7.67;2.20;;;15.60;99.60;;;;;;5073681;28;20468;-58
2023/10/14 04:35:57;;;;;;;9.87;1.67;;;15.60;99.60;;;;;;5073727;28;20519;-58
2023/10/14 04:38:28;;;;;;;8.83;2.10;;;15.50;99.40;;;;;;5073710;28;20421;-58
2023/10/14 04:40:58;;;;;;;8.23;1.60;;;15.40;99.50;;;;;;5073557;28;20461;-57
2023/10/14 04:43:49;;;;;;;9.50;1.53;;;15.40;99.50;;;;;;5073557;28;20876;-57
2023/10/14 04:46:21;;;;;;;13.33;2.00;;;15.30;99.70;;;;;;5073583;28;20425;-57
2023/10/14 04:48:58;;;;;;;10.40;2.00;;;15.20;99.70;;;;;;5073532;28;20425;-57
2023/10/14 04:51:34;;;;;;;15.13;2.50;;;15.10;99.90;;;;;;5073049;28;20490;-57
2023/10/14 04:54:01;;;;;;;10.50;1.90;;;15.10;99.90;;;;;;5073423;28;20518;-58
2023/10/14 04:56:30;;;;;;;7.40;1.97;;;15.00;99.90;;;;;;5073392;28;20436;-58
2023/10/14 04:58:57;;;;;;;6.10;1.97;;;15.00;99.90;;;;;;5073382;28;20484;-58
2023/10/14 05:01:25;;;;;;;5.70;2.30;;;14.90;99.90;;;;;;5073348;28;20465;-57
2023/10/14 05:03:56;;;;;;;9.77;2.57;;;14.80;99.90;;;;;;5073354;28;20447;-57
2023/10/14 05:06:29;;;;;;;12.60;1.93;;;14.80;99.90;;;;;;5073212;28;20544;-58
2023/10/14 05:08:55;;;;;;;8.20;1.80;;;14.80;99.90;;;;;;5073153;28;20846;-57
2023/10/14 05:11:25;;;;;;;6.93;2.30;;;14.70;99.90;;;;;;5073170;28;20496;-57
2023/10/14 05:14:06;;;;;;;6.80;1.93;;;14.70;99.90;;;;;;5073885;28;20424;-57
2023/10/14 05:16:50;;;;;;;8.40;1.80;;;14.60;99.90;;;;;;5073220;28;20519;-58
2023/10/14 05:19:23;;;;;;;10.37;2.30;;;14.50;99.90;;;;;;5073717;28;20433;-58
2023/10/14 05:21:56;;;;;;;9.33;1.90;;;14.50;99.90;;;;;;5072912;28;20421;-58
2023/10/14 05:24:28;;;;;;;7.13;2.00;;;14.40;99.60;;;;;;5073307;28;20457;-58
2023/10/14 05:26:59;;;;;;;12.33;1.93;;;14.40;99.90;;;;;;5073221;28;20451;-58
2023/10/14 05:29:27;;;;;;;9.70;2.07;;;14.30;99.30;;;;;;5073216;28;20469;-57
2023/10/14 05:32:04;;;;;;;10.27;1.90;;;14.20;99.60;;;;;;5073328;28;20476;-57
2023/10/14 05:34:32;;;;;;;11.83;1.83;;;14.20;99.70;;;;;;5073126;28;20871;-57
2023/10/14 05:36:59;;;;;;;17.47;2.57;;;14.20;99.70;;;;;;5073097;28;20448;-57
2023/10/14 05:39:28;;;;;;;10.10;2.00;;;14.20;99.60;;;;;;5072597;28;20863;-57
2023/10/14 05:41:58;;;;;;;7.27;3.17;;;14.10;99.40;;;;;;5072953;28;20487;-57
2023/10/14 05:44:27;;;;;;;7.97;2.20;;;14.10;99.80;;;;;;5076301;28;20942;-57
2023/10/14 05:46:55;;;;;;;7.80;2.20;;;14.10;99.90;;;;;;5077441;28;20523;-57
2023/10/14 05:49:24;;;;;;;8.07;1.90;;;14.00;99.60;;;;;;5076509;28;20449;-57
2023/10/14 05:51:52;;;;;;;7.87;2.13;;;14.00;99.60;;;;;;5076752;28;20567;-57
2023/10/14 05:54:18;;;;;;;9.27;2.37;;;13.90;99.30;;;;;;5076794;28;20472;-57
2023/10/14 05:56:45;;;;;;;8.37;2.07;;;13.90;99.70;;;;;;5076731;28;20441;-57
2023/10/14 05:59:14;;;;;;;8.43;2.57;;;13.90;99.70;;;;;;5076602;28;20447;-57
2023/10/14 06:01:45;;;;;;;8.47;2.20;;;13.80;99.40;;;;;;5077296;28;20477;-57
2023/10/14 06:04:14;;;;;;;8.50;2.37;;;13.80;99.60;;;;;;5076273;28;20964;-57
2023/10/14 06:06:41;;;;;;;7.07;2.47;;;13.80;99.80;;;;;;5076465;28;20452;-57
2023/10/14 06:09:09;;;;;;;12.87;2.53;;;13.80;99.80;;;;;;5076292;28;20475;-57
2023/10/14 06:11:36;;;;;;;12.23;2.40;;;13.80;99.20;;;;;;5076248;28;20452;-57
2023/10/14 06:14:03;;;;;;;15.00;2.40;;;13.70;99.30;;;;;;5076372;28;20501;-57
2023/10/14 06:16:31;;;;;;;9.53;2.57;;;13.70;99.50;;;;;;5076308;28;20472;-57
2023/10/14 06:18:59;;;;;;;6.67;1.80;;;13.70;99.80;;;;;;5076056;28;20543;-57
2023/10/14 06:21:28;;;;;;;9.30;2.30;;;13.70;99.60;;;;;;5076428;28;20503;-57
2023/10/14 06:23:54;;;;;;;9.37;2.13;;;13.70;99.60;;;;;;5076026;28;20432;-57
2023/10/14 06:26:21;;;;;;;11.53;2.33;;;13.70;99.50;;;;;;5076225;28;20444;-57
2023/10/14 06:28:49;;;;;;;6.63;2.03;;;13.70;99.50;;;;;;5076055;28;20521;-57
2023/10/14 06:31:18;;;;;;;9.90;2.00;;;13.70;99.60;;;;;;5076018;28;20500;-57
2023/10/14 06:33:45;;;;;;;13.07;3.20;;;13.70;99.80;;;;;;5075843;28;20480;-57
2023/10/14 06:36:14;;;;;;;9.53;3.13;;;13.60;99.70;;;;;;5075982;28;20448;-57
2023/10/14 06:38:44;;;;;;;7.73;2.13;;;13.60;99.60;;;;;;5075979;28;20490;-57
2023/10/14 06:41:11;;;;;;;8.50;2.23;;;13.60;99.50;;;;;;5075950;28;20522;-57
2023/10/14 06:43:39;;;;;;;7.33;2.70;;;13.60;99.80;;;;;;5075507;28;20471;-57
2023/10/14 06:46:06;;;;;;;8.73;2.80;;;13.70;99.70;;;;;;5075768;28;20815;-57
2023/10/14 06:48:33;;;;;;;11.67;2.33;;;13.70;99.70;;;;;;5075769;28;20548;-58
2023/10/14 06:51:01;;;;;;;4.63;2.17;;;13.70;99.30;;;;;;5075687;28;20461;-58
2023/10/14 06:53:28;;;;;;;8.67;2.10;;;13.70;99.10;;;;;;5075201;28;20483;-57
2023/10/14 06:55:56;;;;;;;9.10;2.00;;;13.70;99.20;;;;;;5075382;28;21000;-57
2023/10/14 06:58:23;;;;;;;5.63;2.03;;;13.70;99.40;;;;;;5075513;28;20452;-57
2023/10/14 07:00:50;;;;;;;8.73;2.33;;;13.70;99.40;;;;;;5075466;28;20468;-57
2023/10/14 07:03:17;;;;;;;9.47;2.73;;;13.60;99.10;;;;;;5075465;28;20466;-57
2023/10/14 07:05:46;;;;;;;13.93;2.20;;;13.70;99.40;;;;;;5075463;28;20515;-57
2023/10/14 07:08:14;;;;;;;12.10;2.57;;;13.70;99.50;;;;;;5075067;28;20961;-58
2023/10/14 07:10:41;;;;;;;8.60;2.33;;;13.70;99.10;;;;;;5074862;28;20480;-57
2023/10/14 07:13:10;;;;;;;11.93;2.63;;;13.70;99.10;;;;;;5075194;28;20484;-57
2023/10/14 07:15:38;;;;;;;8.33;2.20;;;13.70;99.20;;;;;;5075359;28;20885;-58
2023/10/14 07:18:08;;;;;;;8.43;2.50;;;13.70;99.20;;;;;;5074835;28;20472;-58
2023/10/14 07:20:35;;;;;;;11.00;2.33;;;13.80;99.60;;;;;;5075452;28;20508;-58
2023/10/14 07:23:03;;;;;;;14.30;3.20;;;13.80;99.50;;;;;;5075091;28;20448;-58
2023/10/14 07:25:33;;;;;;;10.27;2.43;;;13.80;99.20;;;;;;5074812;28;20970;-57
2023/10/14 07:28:01;;;;;;;13.43;3.00;;;13.70;98.70;;;;;;5075014;28;20429;-57
2023/10/14 07:30:29;;;;;;;9.20;2.33;;;13.80;98.80;;;;;;5074503;28;20471;-57
2023/10/14 07:32:56;;;;;;;7.03;2.10;;;13.80;99.20;;;;;;5074828;28;20476;-58
2023/10/14 07:35:24;;;;;;;12.47;2.50;;;13.80;98.70;;;;;;5074840;28;20445;-58
2023/10/14 07:37:51;;;;;;;6.37;1.80;;;13.80;98.50;;;;;;5074855;28;20480;-58
2023/10/14 07:40:27;;;;;;;7.57;2.40;;;13.70;98.50;;;;;;5074617;28;20523;-58
2023/10/14 07:42:55;;;;;;;9.40;2.37;;;13.70;98.50;;;;;;5074759;28;20428;-57
2023/10/14 07:45:28;;;;;;;15.17;3.37;;;13.70;98.40;;;;;;5074640;28;20441;-57
2023/10/14 07:47:57;;;;;;;10.60;2.30;;;13.70;98.60;;;;;;5074618;28;20460;-57
2023/10/14 07:50:23;;;;;;;11.60;2.40;;;13.80;98.70;;;;;;5074224;28;20461;-58
2023/10/14 07:52:51;;;;;;;9.10;2.10;;;13.80;98.60;;;;;;5074504;28;20484;-57
2023/10/14 07:55:22;;;;;;;8.57;2.07;;;13.80;98.40;;;;;;5074632;28;20449;-58
2023/10/14 07:57:49;;;;;;;8.37;2.63;;;13.80;98.00;;;;;;5074831;28;20425;-58
2023/10/14 08:00:16;;;;;;;9.17;2.40;;;13.80;98.10;;;;;;5074081;28;20982;-58
2023/10/14 08:02:44;;;;;;;12.93;2.47;;;13.70;98.20;;;;;;5074380;28;20821;-58
2023/10/14 08:05:12;;;;;;;11.53;2.30;;;13.80;98.10;;;;;;5073580;28;20451;-58
2023/10/14 08:07:42;;;;;;;9.40;2.40;;;13.70;98.60;;;;;;5074294;28;20445;-58
2023/10/14 08:10:18;;;;;;;8.90;3.23;;;13.70;98.00;;;;;;5073899;28;20474;-58
2023/10/14 08:12:46;;;;;;;12.07;2.70;;;13.70;98.40;;;;;;5073982;28;20464;-58
2023/10/14 08:15:14;;;;;;;10.87;3.20;;;13.70;98.40;;;;;;5073714;28;20942;-58
2023/10/14 08:17:41;;;;;;;9.43;2.30;;;13.80;98.30;;;;;;5074857;28;20779;-58
2023/10/14 08:20:13;;;;;;;14.70;4.00;;;13.80;97.80;;;;;;5073894;28;20457;-58
2023/10/14 08:22:44;;;;;;;13.50;2.50;;;13.90;98.00;;;;;;5073922;28;20432;-58
2023/10/14 08:25:11;;;;;;;7.27;2.60;;;13.90;97.40;;;;;;5073952;28;20455;-58
2023/10/14 08:27:38;;;;;;;15.17;3.20;;;13.90;97.60;;;;;;5073819;28;20449;-58
2023/10/14 08:30:10;;;;;;;11.20;2.37;;;13.90;96.90;;;;;;5073391;28;20969;-58
2023/10/14 08:32:38;;;;;;;15.30;2.63;;;13.90;97.40;;;;;;5073392;28;20465;-58
2023/10/14 08:35:14;;;;;;;8.37;2.37;;;14.00;97.60;;;;;;5073379;28;20450;-58
2023/10/14 08:37:43;;;;;;;7.13;2.07;;;14.00;98.10;;;;;;5073710;28;20432;-58
2023/10/14 08:40:16;;;;;;;8.23;2.93;;;14.00;97.00;;;;;;5073710;28;20468;-58
2023/10/14 08:42:48;;;;;;;7.40;2.37;;;14.00;96.80;;;;;;5073752;28;20516;-58
2023/10/14 08:45:16;;;;;;;7.70;2.30;;;14.10;96.90;;;;;;5073733;28;20428;-58
2023/10/14 08:47:45;;;;;;;9.27;2.80;;;14.10;97.20;;;;;;5073692;28;20498;-58
2023/10/14 08:50:15;;;;;;;9.53;2.60;;;14.10;96.20;;;;;;5073547;28;20460;-58
2023/10/14 08:52:45;;;;;;;7.00;1.80;;;14.10;96.10;;;;;;5073672;28;20480;-58
2023/10/14 08:55:16;;;;;;;8.40;2.40;;;14.30;97.10;;;;;;5073647;28;20430;-58
2023/10/14 08:57:44;;;;;;;10.73;2.73;;;14.30;96.40;;;;;;5073540;28;20461;-58
2023/10/14 09:00:12;;;;;;;10.13;2.10;;;14.40;95.70;;;;;;5073369;28;20475;-57
2023/10/14 09:02:40;;;;;;;8.83;2.30;;;14.40;95.40;;;;;;5073419;28;20447;-58
2023/10/14 09:05:11;;;;;;;8.23;2.57;;;14.50;95.90;;;;;;5073415;28;20444;-58
2023/10/14 09:07:39;;;;;;;13.00;2.50;;;14.60;95.90;;;;;;5073023;28;20914;-58
2023/10/14 09:10:08;;;;;;;9.07;2.10;;;14.60;94.80;;;;;;5072875;28;20473;-58
2023/10/14 09:12:35;;;;;;;11.87;3.23;;;14.60;94.30;;;;;;5073416;28;20441;-58
2023/10/14 09:15:02;;;;;;;9.40;2.80;;;14.60;93.60;;;;;;5073666;28;20440;-58
2023/10/14 09:17:30;;;;;;;14.43;2.60;;;14.60;94.40;;;;;;5077042;28;20453;-58
2023/10/14 09:19:57;;;;;;;9.20;2.20;;;14.70;94.60;;;;;;5079780;28;20521;-58
2023/10/14 09:22:25;;;;;;;10.03;2.40;;;14.80;94.20;;;;;;5079890;28;20871;-58
2023/10/14 09:24:53;;;;;;;12.13;2.47;;;14.80;92.40;;;;;;5079983;28;20857;-58
2023/10/14 09:27:21;;;;;;;7.90;2.57;;;14.80;92.50;;;;;;5079821;28;20449;-58
2023/10/14 09:29:49;;;;;;;8.40;2.20;;;14.80;92.70;;;;;;5079717;28;20513;-58
2023/10/14 09:32:17;;;;;;;14.73;2.63;;;14.90;93.00;;;;;;5079879;28;20497;-58
2023/10/14 09:34:44;;;;;;;9.23;2.50;;;15.10;92.30;;;;;;5079786;28;20830;-58
2023/10/14 09:37:12;;;;;;;8.30;2.27;;;15.20;92.00;;;;;;5079747;28;20452;-58
2023/10/14 09:39:41;;;;;;;9.43;2.43;;;15.20;91.30;;;;;;5079666;28;20517;-58
2023/10/14 09:42:11;;;;;;;12.30;2.43;;;15.20;90.40;;;;;;5079684;28;20448;-58
2023/10/14 09:44:42;;;;;;;9.13;2.33;;;15.30;91.40;;;;;;5079718;28;20472;-58
2023/10/14 09:47:12;;;;;;;8.03;2.10;;;15.40;90.00;;;;;;5080561;28;20810;-58
2023/10/14 09:49:39;;;;;;;7.57;2.30;;;15.50;90.00;;;;;;5079633;28;20440;-58
2023/10/14 09:52:08;;;;;;;7.70;2.10;;;15.60;90.10;;;;;;5080860;28;20822;-58
2023/10/14 09:54:36;;;;;;;11.57;2.43;;;15.70;87.90;;;;;;5079541;28;20487;-58
2023/10/14 09:57:03;;;;;;;9.83;2.73;;;15.80;88.50;;;;;;5079760;28;20445;-58
2023/10/14 09:59:33;;;;;;;8.60;2.67;;;16.00;87.90;;;;;;5079574;28;20522;-57
2023/10/14 10:02:01;;;;;;;9.07;2.60;;;16.30;88.50;;;;;;5079459;28;20477;-58
2023/10/14 10:04:33;;;;;;;6.47;3.33;;;16.70;87.20;;;;;;5079339;28;20437;-58
2023/10/14 10:07:11;;;;;;;9.90;2.80;;;16.90;81.60;;;;;;5079471;28;20428;-58
2023/10/14 10:10:00;;;;;;;9.97;2.20;;;17.00;80.80;;;;;;5079059;28;20463;-58
2023/10/14 10:12:30;;;;;;;8.07;2.30;;;16.90;80.50;;;;;;5079513;28;20436;-58
2023/10/14 10:14:59;;;;;;;11.43;1.60;;;17.00;79.70;;;;;;5079058;28;20886;-58
2023/10/14 10:17:30;;;;;;;9.23;1.67;;;16.90;74.70;;;;;;5079371;28;20433;-58
2023/10/14 10:20:09;;;;;;;8.20;2.20;;;17.00;78.40;;;;;;5079107;28;20525;-57
2023/10/14 10:22:47;;;;;;;6.33;1.90;;;17.00;77.40;;;;;;5079452;28;20520;-58
2023/10/14 10:25:16;;;;;;;9.53;2.57;;;16.90;77.80;;;;;;5079367;28;20463;-58
2023/10/14 10:27:44;;;;;;;7.37;1.97;;;16.90;77.60;;;;;;5079131;28;20444;-58
2023/10/14 10:30:15;;;;;;;7.20;2.00;;;17.00;77.90;;;;;;5075382;28;20468;-57
2023/10/14 10:32:48;;;;;;;4.03;1.60;;;17.00;77.10;;;;;;5076090;28;20448;-57
2023/10/14 10:35:17;;;;;;;11.20;2.30;;;17.00;77.60;;;;;;5076009;28;20471;-58
2023/10/14 10:37:52;;;;;;;11.07;2.43;;;16.90;76.70;;;;;;5075971;28;20448;-58
2023/10/14 10:40:25;;;;;;;8.70;3.00;;;17.10;77.60;;;;;;5075580;28;20985;-58
2023/10/14 10:42:55;;;;;;;7.40;1.83;;;17.50;75.40;;;;;;5075930;28;20532;-58
2023/10/14 10:45:23;;;;;;;8.93;1.83;;;17.80;74.60;;;;;;5075780;28;20468;-58
2023/10/14 10:47:54;;;;;;;6.83;2.20;;;18.50;72.50;;;;;;5075799;28;20445;-58
2023/10/14 10:50:22;;;;;;;6.83;2.00;;;19.30;70.10;;;;;;5075725;28;20488;-58
2023/10/14 10:53:25;;;;;;;8.30;2.63;;;20.10;66.00;;;;;;5075782;28;20445;-58
2023/10/14 10:55:52;;;;;;;5.53;2.00;;;20.90;59.50;;;;;;5075709;28;20423;-58
2023/10/14 10:58:21;;;;;;;7.53;2.40;;;21.50;58.10;;;;;;5075284;28;20961;-58
2023/10/14 11:00:49;;;;;;;9.80;2.63;;;22.10;56.20;;;;;;5075517;28;20492;-58
2023/10/14 11:03:18;;;;;;;7.30;2.00;;;22.60;52.30;;;;;;5075486;28;20502;-58
2023/10/14 11:05:45;;;;;;;8.00;1.97;;;23.10;51.70;;;;;;5075464;28;20441;-58
2023/10/14 11:08:15;;;;;;;5.13;2.03;;;23.30;48.60;;;;;;5075418;28;20444;-58
2023/10/14 11:10:43;;;;;;;5.20;1.60;;;23.40;48.00;;;;;;5074909;28;20913;-58
2023/10/14 11:13:11;;;;;;;11.77;2.50;;;22.80;47.20;;;;;;5075245;28;20531;-58
2023/10/14 11:15:39;;;;;;;7.10;1.90;;;21.80;48.20;;;;;;5075278;28;20476;-58
2023/10/14 11:18:08;;;;;;;8.77;2.03;;;20.90;50.80;;;;;;5075206;28;20452;-58
2023/10/14 11:20:39;;;;;;;6.23;1.90;;;20.50;51.20;;;;;;5075117;28;20472;-58
2023/10/14 11:23:08;;;;;;;9.80;2.10;;;20.50;51.90;;;;;;5074769;28;20436;-58
2023/10/14 11:25:38;;;;;;;8.33;1.90;;;20.80;50.70;;;;;;5075109;28;20453;-58
2023/10/14 11:28:06;;;;;;;11.90;1.90;;;20.90;51.00;;;;;;5074681;28;20957;-58
2023/10/14 11:30:33;;;;;;;6.50;1.93;;;20.50;51.00;;;;;;5074916;28;20477;-58
2023/10/14 11:33:00;;;;;;;5.80;1.80;;;20.60;50.90;;;;;;5074941;28;20441;-58
2023/10/14 11:35:29;;;;;;;7.60;1.90;;;20.90;50.00;;;;;;5075264;28;20842;-58
2023/10/14 11:38:00;;;;;;;8.60;1.83;;;21.50;49.10;;;;;;5074574;28;20445;-58
2023/10/14 11:40:33;;;;;;;3.93;1.70;;;21.80;48.00;;;;;;5073776;28;20517;-58
2023/10/14 11:43:00;;;;;;;5.83;1.90;;;21.70;46.90;;;;;;5074501;28;20911;-58
2023/10/14 11:45:27;;;;;;;4.20;1.83;;;21.40;45.90;;;;;;5074623;28;20458;-58
2023/10/14 11:47:54;;;;;;;6.40;1.43;;;21.80;46.10;;;;;;5074600;28;20449;-58
2023/10/14 11:50:21;;;;;;;4.50;1.50;;;22.20;43.90;;;;;;5074557;28;20475;-58
2023/10/14 11:52:52;;;;;;;4.77;2.10;;;22.40;44.20;;;;;;5074184;28;20855;-60
2023/10/14 11:55:21;;;;;;;6.37;2.10;;;22.90;43.10;;;;;;5074474;28;20500;-58
2023/10/14 11:57:49;;;;;;;9.80;2.43;;;23.50;42.40;;;;;;5074268;28;20445;-58
2023/10/14 12:00:17;;;;;;;5.57;1.57;;;23.90;41.00;;;;;;5074572;28;20473;-58
2023/10/14 12:02:45;;;;;;;5.73;1.80;;;24.50;41.00;;;;;;5074836;28;20461;-58
2023/10/14 12:05:13;;;;;;;8.53;2.30;;;25.20;40.90;;;;;;5074283;28;20451;-58
2023/10/14 12:07:40;;;;;;;5.20;2.03;;;25.50;38.90;;;;;;5074214;28;20452;-58
2023/10/14 12:10:08;;;;;;;5.23;1.87;;;24.80;40.20;;;;;;5073878;28;20480;-58
2023/10/14 12:12:37;;;;;;;8.33;2.50;;;24.00;42.00;;;;;;5074204;28;20444;-58
2023/10/14 12:15:05;;;;;;;8.27;2.30;;;23.50;42.00;;;;;;5074396;28;20479;-58
2023/10/14 12:17:33;;;;;;;5.10;1.90;;;22.40;43.90;;;;;;5074112;28;20445;-58
2023/10/14 12:20:04;;;;;;;8.33;2.80;;;21.70;46.00;;;;;;5073958;28;20469;-58
2023/10/14 12:22:31;;;;;;;9.80;2.40;;;21.70;47.20;;;;;;5074005;28;20440;-58
2023/10/14 12:24:57;;;;;;;6.53;2.00;;;22.30;45.60;;;;;;5073894;28;20444;-58
2023/10/14 12:27:25;;;;;;;6.90;2.10;;;22.70;43.90;;;;;;5073946;28;20452;-58
2023/10/14 12:29:54;;;;;;;6.97;2.00;;;22.10;43.10;;;;;;5073827;28;20472;-58
2023/10/14 12:32:20;;;;;;;11.60;2.97;;;21.30;43.50;;;;;;5073751;28;20455;-58
2023/10/14 12:34:49;;;;;;;7.20;2.30;;;21.30;44.80;;;;;;5073742;28;20491;-58
2023/10/14 12:37:19;;;;;;;6.20;1.70;;;21.50;44.20;;;;;;5073700;28;20473;-58
2023/10/14 12:39:49;;;;;;;5.37;2.00;;;22.00;44.10;;;;;;5073599;28;20559;-58
2023/10/14 12:42:17;;;;;;;6.47;2.13;;;22.50;43.20;;;;;;5073897;28;20487;-58
2023/10/14 12:44:48;;;;;;;4.07;1.60;;;22.80;42.10;;;;;;5073295;28;20927;-58
2023/10/14 12:47:20;;;;;;;4.07;1.63;;;23.20;41.30;;;;;;5073603;28;20622;-58
2023/10/14 12:49:46;;;;;;;6.90;2.53;;;23.00;42.30;;;;;;5073530;28;20471;-58
2023/10/14 12:52:15;;;;;;;6.10;1.80;;;22.60;43.50;;;;;;5073152;28;20440;-58
2023/10/14 12:54:41;;;;;;;6.90;2.57;;;21.80;44.70;;;;;;5073582;28;20488;-58
2023/10/14 12:57:09;;;;;;;6.67;2.23;;;21.30;47.00;;;;;;5073393;28;20447;-57